This is the latest recevied weather packets stored in our database for station/object W4CKA. If no packets are shown the sender has not sent any weather packets the latest 10 day(s).
| Time | Temp. | Humidity | Pressure | Rain* | Wind** | Luminosity | Snow |
|---|---|---|---|---|---|---|---|
| 1787623692 | 17.78° C | 95% | 1060.4 hPa | 0 mm | - | 0 W/m² | - |
| 1787623090 | 17.78° C | 96% | 1060.4 hPa | 0 mm | - | 0 W/m² | - |
| 1787622489 | 17.22° C | 97% | 1060.2 hPa | 0 mm | - | 0 W/m² | - |
| 1787621884 | 17.22° C | 97% | 1060.1 hPa | 0 mm | - | 0 W/m² | - |
| 1787621281 | 17.78° C | 97% | 1059.9 hPa | 0 mm | - | 0 W/m² | - |
| 1787620676 | 17.78° C | 96% | 1059.9 hPa | 0 mm | - | 0 W/m² | - |
| 1787620074 | 17.78° C | 95% | 1059.6 hPa | 0 mm | - | 0 W/m² | - |
| 1787619475 | 18.33° C | 94% | 1059.4 hPa | 0 mm | - | 0 W/m² | - |
| 1787618869 | 18.89° C | 92% | 1059.3 hPa | 0 mm | - | 0 W/m² | - |
| 1787618269 | 18.89° C | 91% | 1059.3 hPa | 0 mm | - | 0 W/m² | - |
| 1787617664 | 19.44° C | 91% | 1059.2 hPa | 0 mm | - | 0 W/m² | - |
| 1787617064 | 20° C | 90% | 1059.2 hPa | 0 mm | - | 0 W/m² | - |
| 1787616459 | 20.56° C | 89% | 1059 hPa | 0 mm | - | 0 W/m² | - |
| 1787615857 | 21.11° C | 88% | 1058.9 hPa | 0 mm | - | 4 W/m² | - |
| 1787615253 | 21.67° C | 85% | 1059 hPa | 0 mm | - | 9 W/m² | - |
| 1787614651 | 22.78° C | 78% | 1059 hPa | 0 mm | - | 16 W/m² | - |
| 1787614051 | 23.33° C | 76% | 1058.7 hPa | 0 mm | - | 24 W/m² | - |
| 1787613446 | 24.44° C | 70% | 1058.6 hPa | 0 mm | - | 33 W/m² | - |
| 1787612845 | 24.44° C | 66% | 1058.7 hPa | 0 mm | - | 39 W/m² | - |
| 1787612243 | 25.56° C | 71% | 1058.8 hPa | 0 mm | - | 71 W/m² | - |
| 1787611641 | 26.11° C | 68% | 1059 hPa | 0 mm | - | 87 W/m² | - |
| 1787611037 | 26.11° C | 66% | 1059 hPa | 0 mm | - | 93 W/m² | - |
| 1787610434 | 26.11° C | 66% | 1058.8 hPa | 0 mm | - | 126 W/m² | - |
| 1787609832 | 27.22° C | 63% | 1059 hPa | 0 mm | - | 113 W/m² | - |
| 1787609227 | 28.89° C | 51% | 1058.9 hPa | 0 mm | - | 180 W/m² | - |
* Rain latest hour (hover to see other rain measurements)
** Current wind speed in m/s (hover to see current wind gust speed)